sensor_id;sensor_type;location;lat;lon;timestamp;P1;durP1;ratioP1;P2;durP2;ratioP2
6723;SDS011;3399;52.530;13.304;2023-04-24T00:00:16;5.00;;;4.50;;
6723;SDS011;3399;52.530;13.304;2023-04-24T00:02:42;4.50;;;4.10;;
6723;SDS011;3399;52.530;13.304;2023-04-24T00:05:12;4.63;;;4.17;;
6723;SDS011;3399;52.530;13.304;2023-04-24T00:07:42;4.80;;;4.40;;
6723;SDS011;3399;52.530;13.304;2023-04-24T00:10:08;5.57;;;4.27;;
6723;SDS011;3399;52.530;13.304;2023-04-24T00:12:34;5.37;;;4.87;;
6723;SDS011;3399;52.530;13.304;2023-04-24T00:15:00;4.30;;;4.00;;
6723;SDS011;3399;52.530;13.304;2023-04-24T00:17:26;4.93;;;4.53;;
6723;SDS011;3399;52.530;13.304;2023-04-24T00:19:51;5.20;;;4.80;;
6723;SDS011;3399;52.530;13.304;2023-04-24T00:22:23;5.47;;;4.97;;
6723;SDS011;3399;52.530;13.304;2023-04-24T00:24:49;7.33;;;4.70;;
6723;SDS011;3399;52.530;13.304;2023-04-24T00:27:14;5.47;;;4.90;;
6723;SDS011;3399;52.530;13.304;2023-04-24T00:29:40;5.23;;;4.73;;
6723;SDS011;3399;52.530;13.304;2023-04-24T00:32:06;4.47;;;4.17;;
6723;SDS011;3399;52.530;13.304;2023-04-24T00:34:31;5.30;;;4.80;;
6723;SDS011;3399;52.530;13.304;2023-04-24T00:36:57;5.40;;;4.50;;
6723;SDS011;3399;52.530;13.304;2023-04-24T00:39:22;5.20;;;4.70;;
6723;SDS011;3399;52.530;13.304;2023-04-24T00:41:48;4.90;;;4.47;;
6723;SDS011;3399;52.530;13.304;2023-04-24T00:44:15;4.70;;;4.13;;
6723;SDS011;3399;52.530;13.304;2023-04-24T00:46:41;5.80;;;5.40;;
6723;SDS011;3399;52.530;13.304;2023-04-24T00:49:07;5.30;;;4.80;;
6723;SDS011;3399;52.530;13.304;2023-04-24T00:51:33;7.13;;;5.17;;
6723;SDS011;3399;52.530;13.304;2023-04-24T00:53:59;5.00;;;4.60;;
6723;SDS011;3399;52.530;13.304;2023-04-24T00:56:25;5.30;;;4.80;;
6723;SDS011;3399;52.530;13.304;2023-04-24T00:58:51;5.67;;;5.17;;
6723;SDS011;3399;52.530;13.304;2023-04-24T01:01:20;4.90;;;4.07;;
6723;SDS011;3399;52.530;13.304;2023-04-24T01:03:47;5.13;;;4.73;;
6723;SDS011;3399;52.530;13.304;2023-04-24T01:06:16;5.20;;;4.70;;
6723;SDS011;3399;52.530;13.304;2023-04-24T01:08:42;5.57;;;5.07;;
6723;SDS011;3399;52.530;13.304;2023-04-24T01:11:09;4.70;;;4.37;;
6723;SDS011;3399;52.530;13.304;2023-04-24T01:13:35;5.70;;;4.80;;
6723;SDS011;3399;52.530;13.304;2023-04-24T01:16:00;5.43;;;4.93;;
6723;SDS011;3399;52.530;13.304;2023-04-24T01:18:26;5.47;;;5.03;;
6723;SDS011;3399;52.530;13.304;2023-04-24T01:20:53;5.40;;;4.90;;
6723;SDS011;3399;52.530;13.304;2023-04-24T01:23:21;5.70;;;5.30;;
6723;SDS011;3399;52.530;13.304;2023-04-24T01:25:47;5.70;;;5.20;;
6723;SDS011;3399;52.530;13.304;2023-04-24T01:28:14;4.97;;;4.57;;
6723;SDS011;3399;52.530;13.304;2023-04-24T01:30:40;5.60;;;5.20;;
6723;SDS011;3399;52.530;13.304;2023-04-24T01:33:07;5.50;;;5.00;;
6723;SDS011;3399;52.530;13.304;2023-04-24T01:35:32;5.80;;;4.67;;
6723;SDS011;3399;52.530;13.304;2023-04-24T01:37:58;5.07;;;4.67;;
6723;SDS011;3399;52.530;13.304;2023-04-24T01:40:24;5.80;;;4.70;;
6723;SDS011;3399;52.530;13.304;2023-04-24T01:42:49;5.80;;;4.97;;
6723;SDS011;3399;52.530;13.304;2023-04-24T01:45:15;5.77;;;5.17;;
6723;SDS011;3399;52.530;13.304;2023-04-24T01:47:41;4.83;;;4.53;;
6723;SDS011;3399;52.530;13.304;2023-04-24T01:50:07;5.33;;;4.90;;
6723;SDS011;3399;52.530;13.304;2023-04-24T01:52:33;5.57;;;5.07;;
6723;SDS011;3399;52.530;13.304;2023-04-24T01:55:00;6.17;;;5.50;;
6723;SDS011;3399;52.530;13.304;2023-04-24T01:57:25;5.83;;;5.10;;
6723;SDS011;3399;52.530;13.304;2023-04-24T01:59:51;5.37;;;4.87;;
6723;SDS011;3399;52.530;13.304;2023-04-24T02:02:16;6.00;;;5.00;;
6723;SDS011;3399;52.530;13.304;2023-04-24T02:04:42;6.20;;;5.60;;
6723;SDS011;3399;52.530;13.304;2023-04-24T02:07:08;5.43;;;5.00;;
6723;SDS011;3399;52.530;13.304;2023-04-24T02:09:33;5.63;;;5.00;;
6723;SDS011;3399;52.530;13.304;2023-04-24T02:11:59;6.17;;;5.57;;
6723;SDS011;3399;52.530;13.304;2023-04-24T02:14:25;5.63;;;5.13;;
6723;SDS011;3399;52.530;13.304;2023-04-24T02:16:51;6.20;;;5.23;;
6723;SDS011;3399;52.530;13.304;2023-04-24T02:19:16;5.80;;;5.40;;
6723;SDS011;3399;52.530;13.304;2023-04-24T02:21:42;5.90;;;5.40;;
6723;SDS011;3399;52.530;13.304;2023-04-24T02:24:07;5.97;;;5.47;;
6723;SDS011;3399;52.530;13.304;2023-04-24T02:26:33;6.33;;;5.83;;
6723;SDS011;3399;52.530;13.304;2023-04-24T02:28:58;6.43;;;5.83;;
6723;SDS011;3399;52.530;13.304;2023-04-24T02:31:24;5.87;;;5.37;;
6723;SDS011;3399;52.530;13.304;2023-04-24T02:33:58;6.60;;;5.63;;
6723;SDS011;3399;52.530;13.304;2023-04-24T02:36:24;5.93;;;5.23;;
6723;SDS011;3399;52.530;13.304;2023-04-24T02:38:50;6.77;;;5.97;;
6723;SDS011;3399;52.530;13.304;2023-04-24T02:41:15;7.07;;;5.73;;
6723;SDS011;3399;52.530;13.304;2023-04-24T02:43:40;4.97;;;4.57;;
6723;SDS011;3399;52.530;13.304;2023-04-24T02:46:06;6.97;;;6.37;;
6723;SDS011;3399;52.530;13.304;2023-04-24T02:48:31;6.77;;;6.17;;
6723;SDS011;3399;52.530;13.304;2023-04-24T02:50:57;6.80;;;6.17;;
6723;SDS011;3399;52.530;13.304;2023-04-24T02:53:23;6.20;;;5.67;;
6723;SDS011;3399;52.530;13.304;2023-04-24T02:55:48;6.20;;;5.60;;
6723;SDS011;3399;52.530;13.304;2023-04-24T02:58:14;6.37;;;5.83;;
6723;SDS011;3399;52.530;13.304;2023-04-24T03:00:40;5.73;;;5.33;;
6723;SDS011;3399;52.530;13.304;2023-04-24T03:03:06;6.23;;;5.73;;
6723;SDS011;3399;52.530;13.304;2023-04-24T03:05:32;6.83;;;6.13;;
6723;SDS011;3399;52.530;13.304;2023-04-24T03:07:57;6.13;;;5.63;;
6723;SDS011;3399;52.530;13.304;2023-04-24T03:10:23;6.23;;;5.67;;
6723;SDS011;3399;52.530;13.304;2023-04-24T03:12:49;6.27;;;5.67;;
6723;SDS011;3399;52.530;13.304;2023-04-24T03:15:14;6.47;;;5.97;;
6723;SDS011;3399;52.530;13.304;2023-04-24T03:17:40;6.53;;;5.87;;
6723;SDS011;3399;52.530;13.304;2023-04-24T03:20:06;6.70;;;6.10;;
6723;SDS011;3399;52.530;13.304;2023-04-24T03:22:33;6.37;;;5.87;;
6723;SDS011;3399;52.530;13.304;2023-04-24T03:24:59;6.53;;;5.90;;
6723;SDS011;3399;52.530;13.304;2023-04-24T03:27:24;6.70;;;5.33;;
6723;SDS011;3399;52.530;13.304;2023-04-24T03:29:50;6.30;;;5.73;;
6723;SDS011;3399;52.530;13.304;2023-04-24T03:32:24;6.07;;;5.57;;
6723;SDS011;3399;52.530;13.304;2023-04-24T03:34:49;5.37;;;4.87;;
6723;SDS011;3399;52.530;13.304;2023-04-24T03:37:15;5.53;;;5.03;;
6723;SDS011;3399;52.530;13.304;2023-04-24T03:39:41;7.00;;;5.80;;
6723;SDS011;3399;52.530;13.304;2023-04-24T03:42:08;5.80;;;5.30;;
6723;SDS011;3399;52.530;13.304;2023-04-24T03:44:33;5.57;;;4.97;;
6723;SDS011;3399;52.530;13.304;2023-04-24T03:46:59;6.20;;;5.60;;
6723;SDS011;3399;52.530;13.304;2023-04-24T03:49:25;6.77;;;6.17;;
6723;SDS011;3399;52.530;13.304;2023-04-24T03:51:51;6.50;;;5.87;;
6723;SDS011;3399;52.530;13.304;2023-04-24T03:54:17;6.57;;;6.07;;
6723;SDS011;3399;52.530;13.304;2023-04-24T03:56:43;5.47;;;5.07;;
6723;SDS011;3399;52.530;13.304;2023-04-24T03:59:08;5.60;;;5.10;;
6723;SDS011;3399;52.530;13.304;2023-04-24T04:01:34;6.00;;;5.50;;
6723;SDS011;3399;52.530;13.304;2023-04-24T04:04:02;6.33;;;5.80;;
6723;SDS011;3399;52.530;13.304;2023-04-24T04:06:28;5.93;;;5.37;;
6723;SDS011;3399;52.530;13.304;2023-04-24T04:08:55;6.27;;;5.77;;
6723;SDS011;3399;52.530;13.304;2023-04-24T04:11:21;6.67;;;6.07;;
6723;SDS011;3399;52.530;13.304;2023-04-24T04:13:47;5.93;;;5.43;;
6723;SDS011;3399;52.530;13.304;2023-04-24T04:16:13;6.33;;;5.80;;
6723;SDS011;3399;52.530;13.304;2023-04-24T04:18:38;7.13;;;6.07;;
6723;SDS011;3399;52.530;13.304;2023-04-24T04:21:04;5.30;;;4.80;;
6723;SDS011;3399;52.530;13.304;2023-04-24T04:23:30;6.60;;;6.00;;
6723;SDS011;3399;52.530;13.304;2023-04-24T04:25:56;6.37;;;5.80;;
6723;SDS011;3399;52.530;13.304;2023-04-24T04:28:22;10.57;;;5.63;;
6723;SDS011;3399;52.530;13.304;2023-04-24T04:30:49;6.07;;;5.50;;
6723;SDS011;3399;52.530;13.304;2023-04-24T04:33:18;5.77;;;5.33;;
6723;SDS011;3399;52.530;13.304;2023-04-24T04:35:44;6.37;;;5.77;;
6723;SDS011;3399;52.530;13.304;2023-04-24T04:38:13;7.10;;;6.07;;
6723;SDS011;3399;52.530;13.304;2023-04-24T04:40:40;5.97;;;5.47;;
6723;SDS011;3399;52.530;13.304;2023-04-24T04:43:05;5.80;;;5.33;;
6723;SDS011;3399;52.530;13.304;2023-04-24T04:45:31;6.00;;;5.40;;
6723;SDS011;3399;52.530;13.304;2023-04-24T04:47:57;5.80;;;5.27;;
6723;SDS011;3399;52.530;13.304;2023-04-24T04:50:25;5.67;;;4.93;;
6723;SDS011;3399;52.530;13.304;2023-04-24T04:52:51;6.50;;;5.90;;
6723;SDS011;3399;52.530;13.304;2023-04-24T04:55:17;5.80;;;5.30;;
6723;SDS011;3399;52.530;13.304;2023-04-24T04:57:43;8.03;;;5.90;;
6723;SDS011;3399;52.530;13.304;2023-04-24T05:00:08;5.50;;;5.10;;
6723;SDS011;3399;52.530;13.304;2023-04-24T05:02:35;7.13;;;5.80;;
6723;SDS011;3399;52.530;13.304;2023-04-24T05:05:01;5.20;;;4.70;;
6723;SDS011;3399;52.530;13.304;2023-04-24T05:07:26;5.17;;;4.77;;
6723;SDS011;3399;52.530;13.304;2023-04-24T05:09:52;8.53;;;5.03;;
6723;SDS011;3399;52.530;13.304;2023-04-24T05:12:17;5.80;;;5.30;;
6723;SDS011;3399;52.530;13.304;2023-04-24T05:14:43;5.63;;;5.13;;
6723;SDS011;3399;52.530;13.304;2023-04-24T05:17:09;6.57;;;5.27;;
6723;SDS011;3399;52.530;13.304;2023-04-24T05:19:34;5.20;;;4.73;;
6723;SDS011;3399;52.530;13.304;2023-04-24T05:22:02;5.43;;;4.90;;
6723;SDS011;3399;52.530;13.304;2023-04-24T05:24:29;6.03;;;5.27;;
6723;SDS011;3399;52.530;13.304;2023-04-24T05:26:55;5.40;;;4.90;;
6723;SDS011;3399;52.530;13.304;2023-04-24T05:29:21;5.50;;;4.93;;
6723;SDS011;3399;52.530;13.304;2023-04-24T05:31:47;5.50;;;5.00;;
6723;SDS011;3399;52.530;13.304;2023-04-24T05:34:12;5.03;;;4.50;;
6723;SDS011;3399;52.530;13.304;2023-04-24T05:36:39;5.77;;;5.17;;
6723;SDS011;3399;52.530;13.304;2023-04-24T05:39:04;5.03;;;4.10;;
6723;SDS011;3399;52.530;13.304;2023-04-24T05:41:30;4.53;;;4.13;;
6723;SDS011;3399;52.530;13.304;2023-04-24T05:43:55;5.37;;;4.87;;
6723;SDS011;3399;52.530;13.304;2023-04-24T05:46:21;4.40;;;4.00;;
6723;SDS011;3399;52.530;13.304;2023-04-24T05:48:46;3.90;;;3.50;;
6723;SDS011;3399;52.530;13.304;2023-04-24T05:51:12;4.33;;;3.93;;
6723;SDS011;3399;52.530;13.304;2023-04-24T05:53:37;4.63;;;3.73;;
6723;SDS011;3399;52.530;13.304;2023-04-24T05:56:03;4.93;;;4.00;;
6723;SDS011;3399;52.530;13.304;2023-04-24T05:58:28;3.33;;;3.10;;
6723;SDS011;3399;52.530;13.304;2023-04-24T06:00:54;6.47;;;3.03;;
6723;SDS011;3399;52.530;13.304;2023-04-24T06:03:20;4.83;;;2.63;;
6723;SDS011;3399;52.530;13.304;2023-04-24T06:05:45;2.60;;;2.43;;
6723;SDS011;3399;52.530;13.304;2023-04-24T06:08:11;2.90;;;2.53;;
6723;SDS011;3399;52.530;13.304;2023-04-24T06:10:36;2.60;;;2.40;;
6723;SDS011;3399;52.530;13.304;2023-04-24T06:13:02;3.60;;;2.53;;
6723;SDS011;3399;52.530;13.304;2023-04-24T06:15:28;4.17;;;1.97;;
6723;SDS011;3399;52.530;13.304;2023-04-24T06:17:55;2.57;;;2.37;;
6723;SDS011;3399;52.530;13.304;2023-04-24T06:20:21;2.33;;;2.13;;
6723;SDS011;3399;52.530;13.304;2023-04-24T06:22:47;2.30;;;2.10;;
6723;SDS011;3399;52.530;13.304;2023-04-24T06:25:12;2.40;;;1.70;;
6723;SDS011;3399;52.530;13.304;2023-04-24T06:27:38;3.03;;;1.70;;
6723;SDS011;3399;52.530;13.304;2023-04-24T06:30:03;3.43;;;2.00;;
6723;SDS011;3399;52.530;13.304;2023-04-24T06:32:29;3.70;;;1.67;;
6723;SDS011;3399;52.530;13.304;2023-04-24T06:34:55;1.53;;;1.43;;
6723;SDS011;3399;52.530;13.304;2023-04-24T06:37:21;3.73;;;1.50;;
6723;SDS011;3399;52.530;13.304;2023-04-24T06:39:46;1.60;;;1.50;;
6723;SDS011;3399;52.530;13.304;2023-04-24T06:42:14;1.80;;;1.70;;
6723;SDS011;3399;52.530;13.304;2023-04-24T06:44:40;2.30;;;1.83;;
6723;SDS011;3399;52.530;13.304;2023-04-24T06:47:09;2.13;;;2.03;;
6723;SDS011;3399;52.530;13.304;2023-04-24T06:49:35;2.63;;;1.53;;
6723;SDS011;3399;52.530;13.304;2023-04-24T06:52:04;3.70;;;1.63;;
6723;SDS011;3399;52.530;13.304;2023-04-24T06:54:30;1.10;;;0.97;;
6723;SDS011;3399;52.530;13.304;2023-04-24T06:56:56;1.10;;;1.00;;
6723;SDS011;3399;52.530;13.304;2023-04-24T06:59:25;1.40;;;1.10;;
6723;SDS011;3399;52.530;13.304;2023-04-24T07:01:51;1.07;;;1.07;;
6723;SDS011;3399;52.530;13.304;2023-04-24T07:04:17;1.20;;;1.20;;
6723;SDS011;3399;52.530;13.304;2023-04-24T07:06:43;1.40;;;1.33;;
6723;SDS011;3399;52.530;13.304;2023-04-24T07:09:11;1.00;;;0.80;;
6723;SDS011;3399;52.530;13.304;2023-04-24T07:11:38;1.93;;;1.00;;
6723;SDS011;3399;52.530;13.304;2023-04-24T07:14:05;0.70;;;0.70;;
6723;SDS011;3399;52.530;13.304;2023-04-24T07:16:31;1.27;;;1.07;;
6723;SDS011;3399;52.530;13.304;2023-04-24T07:18:56;1.00;;;1.00;;
6723;SDS011;3399;52.530;13.304;2023-04-24T07:21:22;1.30;;;1.00;;
6723;SDS011;3399;52.530;13.304;2023-04-24T07:23:47;0.63;;;0.63;;
6723;SDS011;3399;52.530;13.304;2023-04-24T07:26:13;1.07;;;0.60;;
6723;SDS011;3399;52.530;13.304;2023-04-24T07:28:39;0.67;;;0.50;;
6723;SDS011;3399;52.530;13.304;2023-04-24T07:31:05;0.83;;;0.83;;
6723;SDS011;3399;52.530;13.304;2023-04-24T07:33:31;0.70;;;0.70;;
6723;SDS011;3399;52.530;13.304;2023-04-24T07:35:56;0.70;;;0.70;;
6723;SDS011;3399;52.530;13.304;2023-04-24T07:38:22;0.80;;;0.80;;
6723;SDS011;3399;52.530;13.304;2023-04-24T07:40:48;0.90;;;0.80;;
6723;SDS011;3399;52.530;13.304;2023-04-24T07:43:13;0.60;;;0.60;;
6723;SDS011;3399;52.530;13.304;2023-04-24T07:45:39;0.70;;;0.70;;
6723;SDS011;3399;52.530;13.304;2023-04-24T07:48:05;0.70;;;0.70;;
6723;SDS011;3399;52.530;13.304;2023-04-24T07:50:31;0.73;;;0.73;;
6723;SDS011;3399;52.530;13.304;2023-04-24T07:52:57;0.53;;;0.53;;
6723;SDS011;3399;52.530;13.304;2023-04-24T07:55:22;0.60;;;0.60;;
6723;SDS011;3399;52.530;13.304;2023-04-24T07:57:48;2.10;;;1.90;;
6723;SDS011;3399;52.530;13.304;2023-04-24T08:00:14;0.60;;;0.60;;
6723;SDS011;3399;52.530;13.304;2023-04-24T08:02:39;0.50;;;0.50;;
6723;SDS011;3399;52.530;13.304;2023-04-24T08:05:05;1.60;;;0.60;;
6723;SDS011;3399;52.530;13.304;2023-04-24T08:07:31;1.13;;;0.80;;
6723;SDS011;3399;52.530;13.304;2023-04-24T08:09:56;2.03;;;0.97;;
6723;SDS011;3399;52.530;13.304;2023-04-24T08:12:22;0.70;;;0.70;;
6723;SDS011;3399;52.530;13.304;2023-04-24T08:14:48;0.70;;;0.70;;
6723;SDS011;3399;52.530;13.304;2023-04-24T08:17:13;0.50;;;0.50;;
6723;SDS011;3399;52.530;13.304;2023-04-24T08:19:39;1.70;;;0.97;;
6723;SDS011;3399;52.530;13.304;2023-04-24T08:22:09;1.27;;;0.70;;
6723;SDS011;3399;52.530;13.304;2023-04-24T08:24:34;0.77;;;0.60;;
6723;SDS011;3399;52.530;13.304;2023-04-24T08:27:01;0.60;;;0.60;;
6723;SDS011;3399;52.530;13.304;2023-04-24T08:29:27;0.90;;;0.50;;
6723;SDS011;3399;52.530;13.304;2023-04-24T08:31:52;0.67;;;0.50;;
6723;SDS011;3399;52.530;13.304;2023-04-24T08:34:19;0.60;;;0.60;;
6723;SDS011;3399;52.530;13.304;2023-04-24T08:36:45;1.10;;;0.97;;
6723;SDS011;3399;52.530;13.304;2023-04-24T08:39:11;1.60;;;1.03;;
6723;SDS011;3399;52.530;13.304;2023-04-24T08:41:36;0.57;;;0.57;;
6723;SDS011;3399;52.530;13.304;2023-04-24T08:44:03;1.00;;;0.83;;
6723;SDS011;3399;52.530;13.304;2023-04-24T08:46:29;0.60;;;0.60;;
6723;SDS011;3399;52.530;13.304;2023-04-24T08:48:55;1.67;;;0.70;;
6723;SDS011;3399;52.530;13.304;2023-04-24T08:51:21;0.60;;;0.60;;
6723;SDS011;3399;52.530;13.304;2023-04-24T08:53:50;0.93;;;0.93;;
6723;SDS011;3399;52.530;13.304;2023-04-24T08:56:18;1.07;;;0.60;;
6723;SDS011;3399;52.530;13.304;2023-04-24T08:58:44;0.83;;;0.83;;
6723;SDS011;3399;52.530;13.304;2023-04-24T09:01:11;1.87;;;0.70;;
6723;SDS011;3399;52.530;13.304;2023-04-24T09:03:37;0.60;;;0.60;;
6723;SDS011;3399;52.530;13.304;2023-04-24T09:06:03;0.60;;;0.60;;
6723;SDS011;3399;52.530;13.304;2023-04-24T09:08:30;0.47;;;0.47;;
6723;SDS011;3399;52.530;13.304;2023-04-24T09:10:57;0.50;;;0.50;;
6723;SDS011;3399;52.530;13.304;2023-04-24T09:13:23;0.60;;;0.60;;
6723;SDS011;3399;52.530;13.304;2023-04-24T09:15:49;1.00;;;0.90;;
6723;SDS011;3399;52.530;13.304;2023-04-24T09:18:15;0.97;;;0.70;;
6723;SDS011;3399;52.530;13.304;2023-04-24T09:23:30;1.27;;;0.80;;
6723;SDS011;3399;52.530;13.304;2023-04-24T09:25:56;1.93;;;0.77;;
6723;SDS011;3399;52.530;13.304;2023-04-24T09:28:29;1.13;;;1.00;;
6723;SDS011;3399;52.530;13.304;2023-04-24T09:33:40;0.60;;;0.60;;
6723;SDS011;3399;52.530;13.304;2023-04-24T09:36:28;1.33;;;0.73;;
6723;SDS011;3399;52.530;13.304;2023-04-24T09:38:59;0.83;;;0.83;;
6723;SDS011;3399;52.530;13.304;2023-04-24T09:41:25;2.50;;;1.67;;
6723;SDS011;3399;52.530;13.304;2023-04-24T09:43:55;2.10;;;1.17;;
6723;SDS011;3399;52.530;13.304;2023-04-24T09:46:28;3.63;;;1.07;;
6723;SDS011;3399;52.530;13.304;2023-04-24T09:48:55;0.83;;;0.80;;
6723;SDS011;3399;52.530;13.304;2023-04-24T09:51:32;2.30;;;0.90;;
6723;SDS011;3399;52.530;13.304;2023-04-24T09:54:11;1.87;;;1.60;;
6723;SDS011;3399;52.530;13.304;2023-04-24T09:56:50;1.97;;;0.70;;
6723;SDS011;3399;52.530;13.304;2023-04-24T09:59:16;1.27;;;0.80;;
6723;SDS011;3399;52.530;13.304;2023-04-24T10:01:44;2.23;;;0.90;;
6723;SDS011;3399;52.530;13.304;2023-04-24T10:04:17;1.53;;;0.80;;
6723;SDS011;3399;52.530;13.304;2023-04-24T10:06:44;2.13;;;0.80;;
6723;SDS011;3399;52.530;13.304;2023-04-24T10:09:10;0.60;;;0.60;;
6723;SDS011;3399;52.530;13.304;2023-04-24T10:11:45;0.87;;;0.73;;
6723;SDS011;3399;52.530;13.304;2023-04-24T10:14:13;0.93;;;0.60;;
6723;SDS011;3399;52.530;13.304;2023-04-24T10:16:40;1.37;;;0.90;;
6723;SDS011;3399;52.530;13.304;2023-04-24T10:19:06;1.60;;;0.80;;
6723;SDS011;3399;52.530;13.304;2023-04-24T10:21:33;1.00;;;0.93;;
6723;SDS011;3399;52.530;13.304;2023-04-24T10:24:00;1.90;;;0.63;;
6723;SDS011;3399;52.530;13.304;2023-04-24T10:26:28;4.20;;;1.20;;
6723;SDS011;3399;52.530;13.304;2023-04-24T10:28:54;0.63;;;0.63;;
6723;SDS011;3399;52.530;13.304;2023-04-24T10:31:23;0.60;;;0.60;;
6723;SDS011;3399;52.530;13.304;2023-04-24T10:33:49;1.17;;;0.83;;
6723;SDS011;3399;52.530;13.304;2023-04-24T10:36:16;1.00;;;0.90;;
6723;SDS011;3399;52.530;13.304;2023-04-24T10:38:42;1.03;;;0.93;;
6723;SDS011;3399;52.530;13.304;2023-04-24T10:41:11;0.80;;;0.80;;
6723;SDS011;3399;52.530;13.304;2023-04-24T10:43:48;0.70;;;0.70;;
6723;SDS011;3399;52.530;13.304;2023-04-24T10:46:29;0.90;;;0.90;;
6723;SDS011;3399;52.530;13.304;2023-04-24T10:48:55;2.07;;;1.17;;
6723;SDS011;3399;52.530;13.304;2023-04-24T10:51:21;1.40;;;0.73;;
6723;SDS011;3399;52.530;13.304;2023-04-24T10:53:48;1.27;;;0.87;;
6723;SDS011;3399;52.530;13.304;2023-04-24T10:56:15;2.13;;;1.13;;
6723;SDS011;3399;52.530;13.304;2023-04-24T10:58:44;0.90;;;0.90;;
6723;SDS011;3399;52.530;13.304;2023-04-24T11:01:24;3.07;;;1.67;;
6723;SDS011;3399;52.530;13.304;2023-04-24T11:03:54;2.90;;;1.00;;
6723;SDS011;3399;52.530;13.304;2023-04-24T11:06:28;1.17;;;1.00;;
6723;SDS011;3399;52.530;13.304;2023-04-24T11:08:59;1.37;;;0.63;;
6723;SDS011;3399;52.530;13.304;2023-04-24T11:11:34;1.70;;;1.00;;
6723;SDS011;3399;52.530;13.304;2023-04-24T11:14:02;2.23;;;1.20;;
6723;SDS011;3399;52.530;13.304;2023-04-24T11:16:34;2.40;;;0.70;;
6723;SDS011;3399;52.530;13.304;2023-04-24T11:21:46;0.87;;;0.77;;
6723;SDS011;3399;52.530;13.304;2023-04-24T11:24:39;0.90;;;0.70;;
6723;SDS011;3399;52.530;13.304;2023-04-24T11:27:15;0.90;;;0.80;;
6723;SDS011;3399;52.530;13.304;2023-04-24T11:29:46;0.73;;;0.70;;
6723;SDS011;3399;52.530;13.304;2023-04-24T11:32:33;2.03;;;1.03;;
6723;SDS011;3399;52.530;13.304;2023-04-24T11:35:04;2.77;;;1.00;;
6723;SDS011;3399;52.530;13.304;2023-04-24T11:40:03;1.37;;;0.80;;
6723;SDS011;3399;52.530;13.304;2023-04-24T11:42:34;2.60;;;1.00;;
6723;SDS011;3399;52.530;13.304;2023-04-24T11:45:07;2.70;;;1.23;;
6723;SDS011;3399;52.530;13.304;2023-04-24T11:47:40;0.80;;;0.80;;
6723;SDS011;3399;52.530;13.304;2023-04-24T11:50:07;2.07;;;1.33;;
6723;SDS011;3399;52.530;13.304;2023-04-24T11:52:38;0.90;;;0.90;;
6723;SDS011;3399;52.530;13.304;2023-04-24T11:55:22;3.70;;;1.17;;
6723;SDS011;3399;52.530;13.304;2023-04-24T11:57:48;1.70;;;1.47;;
6723;SDS011;3399;52.530;13.304;2023-04-24T12:00:19;1.77;;;1.00;;
6723;SDS011;3399;52.530;13.304;2023-04-24T12:03:08;3.80;;;1.23;;
6723;SDS011;3399;52.530;13.304;2023-04-24T12:05:38;2.57;;;1.20;;
6723;SDS011;3399;52.530;13.304;2023-04-24T12:08:04;1.43;;;1.20;;
6723;SDS011;3399;52.530;13.304;2023-04-24T12:10:30;1.03;;;0.93;;
6723;SDS011;3399;52.530;13.304;2023-04-24T12:12:57;0.80;;;0.80;;
6723;SDS011;3399;52.530;13.304;2023-04-24T12:15:24;2.63;;;0.90;;
6723;SDS011;3399;52.530;13.304;2023-04-24T12:17:50;2.53;;;0.93;;
6723;SDS011;3399;52.530;13.304;2023-04-24T12:20:17;1.23;;;1.00;;
6723;SDS011;3399;52.530;13.304;2023-04-24T12:22:52;1.23;;;1.13;;
6723;SDS011;3399;52.530;13.304;2023-04-24T12:25:20;1.07;;;1.00;;
6723;SDS011;3399;52.530;13.304;2023-04-24T12:30:31;0.70;;;0.70;;
6723;SDS011;3399;52.530;13.304;2023-04-24T12:32:58;1.00;;;0.97;;
6723;SDS011;3399;52.530;13.304;2023-04-24T12:35:26;0.60;;;0.60;;
6723;SDS011;3399;52.530;13.304;2023-04-24T12:37:53;1.37;;;1.27;;
6723;SDS011;3399;52.530;13.304;2023-04-24T12:40:19;1.80;;;1.10;;
6723;SDS011;3399;52.530;13.304;2023-04-24T12:42:47;0.80;;;0.73;;
6723;SDS011;3399;52.530;13.304;2023-04-24T12:45:13;1.37;;;0.90;;
6723;SDS011;3399;52.530;13.304;2023-04-24T12:47:40;2.63;;;0.60;;
6723;SDS011;3399;52.530;13.304;2023-04-24T12:50:08;0.70;;;0.70;;
6723;SDS011;3399;52.530;13.304;2023-04-24T12:52:34;0.70;;;0.70;;
6723;SDS011;3399;52.530;13.304;2023-04-24T12:55:00;3.67;;;0.73;;
6723;SDS011;3399;52.530;13.304;2023-04-24T12:57:27;1.17;;;0.90;;
6723;SDS011;3399;52.530;13.304;2023-04-24T12:59:55;1.03;;;0.80;;
6723;SDS011;3399;52.530;13.304;2023-04-24T13:02:22;0.87;;;0.87;;
6723;SDS011;3399;52.530;13.304;2023-04-24T13:04:48;3.70;;;1.00;;
6723;SDS011;3399;52.530;13.304;2023-04-24T13:07:15;2.10;;;0.90;;
6723;SDS011;3399;52.530;13.304;2023-04-24T13:09:41;2.37;;;0.70;;
6723;SDS011;3399;52.530;13.304;2023-04-24T13:12:08;1.20;;;0.90;;
6723;SDS011;3399;52.530;13.304;2023-04-24T13:14:34;0.73;;;0.60;;
6723;SDS011;3399;52.530;13.304;2023-04-24T13:17:00;2.27;;;0.90;;
6723;SDS011;3399;52.530;13.304;2023-04-24T13:19:26;0.87;;;0.80;;
6723;SDS011;3399;52.530;13.304;2023-04-24T13:21:52;0.80;;;0.80;;
6723;SDS011;3399;52.530;13.304;2023-04-24T13:24:22;1.60;;;0.70;;
6723;SDS011;3399;52.530;13.304;2023-04-24T13:26:50;3.30;;;0.93;;
6723;SDS011;3399;52.530;13.304;2023-04-24T13:29:16;2.10;;;1.10;;
6723;SDS011;3399;52.530;13.304;2023-04-24T13:31:42;0.87;;;0.87;;
6723;SDS011;3399;52.530;13.304;2023-04-24T13:34:07;0.83;;;0.83;;
6723;SDS011;3399;52.530;13.304;2023-04-24T13:36:33;2.70;;;1.10;;
6723;SDS011;3399;52.530;13.304;2023-04-24T13:38:59;0.90;;;0.70;;
6723;SDS011;3399;52.530;13.304;2023-04-24T13:41:24;1.20;;;1.10;;
6723;SDS011;3399;52.530;13.304;2023-04-24T13:43:49;0.70;;;0.70;;
6723;SDS011;3399;52.530;13.304;2023-04-24T13:46:15;2.57;;;1.20;;
6723;SDS011;3399;52.530;13.304;2023-04-24T13:48:41;0.97;;;0.97;;
6723;SDS011;3399;52.530;13.304;2023-04-24T13:51:06;0.80;;;0.80;;
6723;SDS011;3399;52.530;13.304;2023-04-24T13:53:32;2.27;;;0.83;;
6723;SDS011;3399;52.530;13.304;2023-04-24T13:56:00;0.90;;;0.90;;
6723;SDS011;3399;52.530;13.304;2023-04-24T13:58:27;0.83;;;0.83;;
6723;SDS011;3399;52.530;13.304;2023-04-24T14:00:52;2.50;;;0.90;;
6723;SDS011;3399;52.530;13.304;2023-04-24T14:03:18;0.60;;;0.60;;
6723;SDS011;3399;52.530;13.304;2023-04-24T14:05:43;1.67;;;0.87;;
6723;SDS011;3399;52.530;13.304;2023-04-24T14:08:09;1.40;;;0.90;;
6723;SDS011;3399;52.530;13.304;2023-04-24T14:10:34;1.83;;;0.70;;
6723;SDS011;3399;52.530;13.304;2023-04-24T14:13:00;0.90;;;0.90;;
6723;SDS011;3399;52.530;13.304;2023-04-24T14:15:26;0.97;;;0.57;;
6723;SDS011;3399;52.530;13.304;2023-04-24T14:17:51;1.03;;;0.80;;
6723;SDS011;3399;52.530;13.304;2023-04-24T14:20:17;0.77;;;0.77;;
6723;SDS011;3399;52.530;13.304;2023-04-24T14:22:42;0.67;;;0.67;;
6723;SDS011;3399;52.530;13.304;2023-04-24T14:25:08;0.87;;;0.83;;
6723;SDS011;3399;52.530;13.304;2023-04-24T14:27:34;1.83;;;1.00;;
6723;SDS011;3399;52.530;13.304;2023-04-24T14:30:00;1.30;;;1.10;;
6723;SDS011;3399;52.530;13.304;2023-04-24T14:32:25;0.77;;;0.77;;
6723;SDS011;3399;52.530;13.304;2023-04-24T14:34:51;2.73;;;0.80;;
6723;SDS011;3399;52.530;13.304;2023-04-24T14:37:17;2.20;;;1.00;;
6723;SDS011;3399;52.530;13.304;2023-04-24T14:39:42;0.70;;;0.70;;
6723;SDS011;3399;52.530;13.304;2023-04-24T14:42:08;4.40;;;1.20;;
6723;SDS011;3399;52.530;13.304;2023-04-24T14:44:33;1.07;;;0.80;;
6723;SDS011;3399;52.530;13.304;2023-04-24T14:46:59;0.80;;;0.80;;
6723;SDS011;3399;52.530;13.304;2023-04-24T14:49:25;2.00;;;0.93;;
6723;SDS011;3399;52.530;13.304;2023-04-24T14:51:51;1.63;;;0.87;;
6723;SDS011;3399;52.530;13.304;2023-04-24T14:54:16;1.40;;;0.90;;
6723;SDS011;3399;52.530;13.304;2023-04-24T14:56:42;0.80;;;0.80;;
6723;SDS011;3399;52.530;13.304;2023-04-24T14:59:09;1.67;;;0.90;;
6723;SDS011;3399;52.530;13.304;2023-04-24T15:01:34;0.63;;;0.63;;
6723;SDS011;3399;52.530;13.304;2023-04-24T15:04:00;0.87;;;0.80;;
6723;SDS011;3399;52.530;13.304;2023-04-24T15:06:25;1.10;;;1.00;;
6723;SDS011;3399;52.530;13.304;2023-04-24T15:08:51;0.70;;;0.70;;
6723;SDS011;3399;52.530;13.304;2023-04-24T15:11:17;1.47;;;1.30;;